Time;durP1;ratioP1;P1;durP2;ratioP2;P2;SDS_P1;SDS_P2;PMS_P1;PMS_P2;Temp;Humidity;BMP_temperature;BMP_pressure;BME280_temperature;BME280_humidity;BME280_pressure;Samples;Min_cycle;Max_cycle;Signal;HPM_P1;HPM_P2
2022/02/28 00:01:34;;;;;;;;;;;22.20;99.90;;;;;;5015030;28;19916;-74
2022/02/28 00:04:00;;;;;;;;;;;22.10;99.90;;;;;;5015489;28;20276;-74
2022/02/28 00:06:27;;;;;;;;;;;22.10;99.90;;;;;;5015716;28;19921;-74
2022/02/28 00:08:54;;;;;;;;;;;22.00;99.90;;;;;;5014802;28;19914;-74
2022/02/28 00:11:21;;;;;;;;;;;21.80;99.90;;;;;;5014901;28;19910;-74
2022/02/28 00:13:47;;;;;;;;;;;21.70;99.90;;;;;;5016864;28;19983;-74
2022/02/28 00:16:14;;;;;;;;;;;21.60;99.90;;;;;;5020247;28;19909;-74
2022/02/28 00:18:41;;;;;;;;;;;21.60;99.90;;;;;;5014650;28;19964;-74
2022/02/28 00:21:08;;;;;;;;;;;21.50;99.90;;;;;;5014866;28;20332;-73
2022/02/28 00:23:34;;;;;;;;;;;21.40;99.90;;;;;;5014379;28;19917;-72
2022/02/28 00:26:02;;;;;;;;;;;21.40;99.90;;;;;;5014425;28;19917;-72
2022/02/28 00:28:29;;;;;;;;;;;21.30;99.90;;;;;;5014159;28;20367;-72
2022/02/28 00:30:55;;;;;;;;;;;21.30;99.90;;;;;;5014276;28;20368;-72
2022/02/28 00:33:22;;;;;;;;;;;21.30;99.90;;;;;;5014511;28;19909;-71
2022/02/28 00:35:49;;;;;;;;;;;21.20;99.90;;;;;;5014467;28;20391;-72
2022/02/28 00:38:16;;;;;;;;;;;21.20;99.90;;;;;;5014499;28;19964;-72
2022/02/28 00:40:42;;;;;;;;;;;21.20;99.90;;;;;;5014245;28;20363;-73
2022/02/28 00:43:09;;;;;;;;;;;21.20;99.90;;;;;;5014055;28;19920;-73
2022/02/28 00:45:36;;;;;;;;;;;21.00;99.90;;;;;;5014015;28;19917;-73
2022/02/28 00:48:03;;;;;;;;;;;21.10;99.90;;;;;;5013548;28;20016;-74
2022/02/28 00:50:29;;;;;;;;;;;21.20;99.90;;;;;;5014000;28;19949;-73
2022/02/28 00:52:56;;;;;;;;;;;21.20;99.90;;;;;;5013703;28;19909;-73
2022/02/28 00:55:23;;;;;;;;;;;21.30;99.90;;;;;;5013925;28;19993;-73
2022/02/28 00:57:49;;;;;;;;;;;21.30;99.90;;;;;;5013734;28;20352;-73
2022/02/28 01:00:17;;;;;;;;;;;21.40;99.90;;;;;;5005066;28;19917;-74
2022/02/28 01:02:44;;;;;;;;;;;21.30;99.90;;;;;;4993672;28;20335;-73
2022/02/28 01:05:12;;;;;;;;;;;21.30;99.90;;;;;;4992735;28;19913;-73
2022/02/28 01:07:39;;;;;;;;;;;21.20;99.90;;;;;;4993674;28;19928;-72
2022/02/28 01:10:07;;;;;;;;;;;21.30;99.90;;;;;;4993357;28;20284;-73
2022/02/28 01:12:34;;;;;;;;;;;21.30;99.90;;;;;;4993687;28;20158;-74
2022/02/28 01:15:01;;;;;;;;;;;21.20;99.90;;;;;;4993472;28;19910;-73
2022/02/28 01:17:28;;;;;;;;;;;21.20;99.90;;;;;;4993768;28;19914;-73
2022/02/28 01:19:55;;;;;;;;;;;21.30;99.90;;;;;;4993049;28;19917;-74
2022/02/28 01:22:22;;;;;;;;;;;21.30;99.90;;;;;;4994111;28;20360;-72
2022/02/28 01:24:49;;;;;;;;;;;21.40;99.90;;;;;;4993433;28;19918;-73
2022/02/28 01:27:15;;;;;;;;;;;21.40;99.90;;;;;;4993587;28;19909;-74
2022/02/28 01:29:42;;;;;;;;;;;21.30;99.90;;;;;;4993630;28;19918;-73
2022/02/28 01:32:09;;;;;;;;;;;21.30;99.90;;;;;;4993486;28;19964;-72
2022/02/28 01:34:35;;;;;;;;;;;21.30;99.90;;;;;;4993154;28;19917;-73
2022/02/28 01:37:02;;;;;;;;;;;21.30;99.90;;;;;;4993245;28;19917;-72
2022/02/28 01:39:29;;;;;;;;;;;21.30;99.90;;;;;;4993389;28;20052;-72
2022/02/28 01:41:56;;;;;;;;;;;21.20;99.90;;;;;;4993276;28;20072;-73
2022/02/28 01:44:22;;;;;;;;;;;21.20;99.90;;;;;;4993327;28;19964;-72
2022/02/28 01:46:49;;;;;;;;;;;21.20;99.90;;;;;;4993424;28;19914;-73
2022/02/28 01:49:16;;;;;;;;;;;21.40;99.90;;;;;;4993407;28;20014;-74
2022/02/28 01:51:42;;;;;;;;;;;21.50;99.90;;;;;;4993041;28;19910;-74
2022/02/28 01:54:09;;;;;;;;;;;21.50;99.90;;;;;;4992545;28;19914;-75
2022/02/28 01:56:36;;;;;;;;;;;21.60;99.90;;;;;;4992993;28;19918;-75
2022/02/28 01:59:03;;;;;;;;;;;21.60;99.90;;;;;;4992868;28;19910;-73
2022/02/28 02:01:29;;;;;;;;;;;21.70;99.90;;;;;;4993170;28;19910;-72
2022/02/28 02:03:56;;;;;;;;;;;21.60;99.90;;;;;;4993054;28;19914;-72
2022/02/28 02:06:23;;;;;;;;;;;21.70;99.90;;;;;;4993057;28;19922;-73
2022/02/28 02:08:50;;;;;;;;;;;21.60;99.90;;;;;;4992968;28;19910;-73
2022/02/28 02:11:16;;;;;;;;;;;21.60;99.90;;;;;;4993003;28;19910;-72
2022/02/28 02:13:43;;;;;;;;;;;21.70;99.90;;;;;;4992913;28;20268;-73
2022/02/28 02:16:10;;;;;;;;;;;21.50;99.90;;;;;;4993614;28;20308;-72
2022/02/28 02:18:37;;;;;;;;;;;21.40;99.90;;;;;;4997251;28;19917;-73
2022/02/28 02:21:03;;;;;;;;;;;21.50;99.90;;;;;;4996960;28;19914;-73
2022/02/28 02:23:31;;;;;;;;;;;21.70;99.90;;;;;;4996764;28;19916;-73
2022/02/28 02:25:59;;;;;;;;;;;21.70;99.90;;;;;;4996642;28;19944;-74
2022/02/28 02:28:25;;;;;;;;;;;21.80;99.90;;;;;;4997130;28;19910;-73
2022/02/28 02:30:56;;;;;;;;;;;21.80;99.90;;;;;;4996714;28;19917;-73
2022/02/28 02:33:23;;;;;;;;;;;21.90;99.90;;;;;;4997446;28;19914;-72
2022/02/28 02:35:53;;;;;;;;;;;22.00;99.90;;;;;;4996895;28;20291;-74
2022/02/28 02:38:20;;;;;;;;;;;22.10;99.90;;;;;;4997294;28;20403;-75
2022/02/28 02:40:47;;;;;;;;;;;22.30;99.90;;;;;;4996583;28;19910;-74
2022/02/28 02:43:14;;;;;;;;;;;22.30;99.90;;;;;;4996677;28;20364;-75
2022/02/28 02:45:41;;;;;;;;;;;22.30;99.90;;;;;;4996335;28;19925;-75
2022/02/28 02:48:11;;;;;;;;;;;22.40;99.90;;;;;;4996509;28;19957;-73
2022/02/28 02:50:38;;;;;;;;;;;22.40;99.90;;;;;;4996407;28;19913;-74
2022/02/28 02:53:05;;;;;;;;;;;22.30;99.90;;;;;;4996588;28;19917;-75
2022/02/28 02:55:31;;;;;;;;;;;22.50;99.90;;;;;;4996471;28;19910;-75
2022/02/28 02:57:58;;;;;;;;;;;22.50;99.90;;;;;;5011481;28;19914;-74
2022/02/28 03:00:25;;;;;;;;;;;22.50;99.90;;;;;;4996211;28;19914;-75
2022/02/28 03:02:51;;;;;;;;;;;22.60;99.90;;;;;;4995997;28;20345;-74
2022/02/28 03:05:18;;;;;;;;;;;22.70;99.90;;;;;;4996049;28;19922;-75
2022/02/28 03:07:45;;;;;;;;;;;22.70;99.90;;;;;;4995800;28;20261;-76
2022/02/28 03:10:11;;;;;;;;;;;22.90;99.90;;;;;;4996224;28;20357;-75
2022/02/28 03:12:39;;;;;;;;;;;22.90;99.90;;;;;;4996030;28;19914;-74
2022/02/28 03:15:06;;;;;;;;;;;23.10;99.90;;;;;;4996261;28;20001;-74
2022/02/28 03:17:34;;;;;;;;;;;23.20;99.90;;;;;;4996133;28;19945;-74
2022/02/28 03:20:00;;;;;;;;;;;23.20;99.90;;;;;;4995962;28;19932;-72
2022/02/28 03:22:27;;;;;;;;;;;23.20;99.90;;;;;;4995542;28;20004;-73
2022/02/28 03:24:54;;;;;;;;;;;23.30;99.90;;;;;;4995781;28;20398;-74
2022/02/28 03:27:20;;;;;;;;;;;23.40;99.90;;;;;;4995634;28;19913;-74
2022/02/28 03:29:47;;;;;;;;;;;23.50;99.90;;;;;;4995247;28;19910;-74
2022/02/28 03:32:14;;;;;;;;;;;23.60;99.90;;;;;;4995759;28;19910;-74
2022/02/28 03:34:40;;;;;;;;;;;23.70;99.90;;;;;;4995576;28;19949;-73
2022/02/28 03:37:07;;;;;;;;;;;23.80;99.90;;;;;;4995699;28;19910;-74
2022/02/28 03:39:34;;;;;;;;;;;23.80;99.90;;;;;;4995483;28;20349;-76
2022/02/28 03:42:00;;;;;;;;;;;23.80;99.90;;;;;;4995561;28;19997;-75
2022/02/28 03:44:27;;;;;;;;;;;23.90;99.90;;;;;;4995453;28;19909;-76
2022/02/28 03:46:54;;;;;;;;;;;24.00;99.90;;;;;;4995414;28;20316;-75
2022/02/28 03:49:21;;;;;;;;;;;24.00;99.90;;;;;;4995215;28;19909;-74
2022/02/28 03:51:47;;;;;;;;;;;24.10;99.90;;;;;;4995368;28;20011;-75
2022/02/28 03:54:14;;;;;;;;;;;24.00;99.90;;;;;;4995403;28;19910;-75
2022/02/28 03:56:42;;;;;;;;;;;24.00;99.90;;;;;;4994863;28;19916;-75
2022/02/28 03:59:09;;;;;;;;;;;24.00;99.90;;;;;;4995246;28;19917;-75
2022/02/28 04:01:36;;;;;;;;;;;24.10;99.90;;;;;;4995353;28;19955;-75
2022/02/28 04:04:04;;;;;;;;;;;24.30;99.90;;;;;;4994936;28;20518;-74
2022/02/28 04:06:35;;;;;;;;;;;24.30;99.90;;;;;;4994729;28;20012;-74
2022/02/28 04:09:04;;;;;;;;;;;24.40;99.90;;;;;;4994701;28;20013;-74
2022/02/28 04:11:31;;;;;;;;;;;24.40;99.90;;;;;;4994358;28;19909;-74
2022/02/28 04:13:58;;;;;;;;;;;24.40;99.90;;;;;;4994794;28;20000;-75
2022/02/28 04:16:24;;;;;;;;;;;24.40;99.90;;;;;;4995010;28;19917;-74
2022/02/28 04:18:51;;;;;;;;;;;24.40;99.90;;;;;;4994327;28;19910;-73
2022/02/28 04:21:17;;;;;;;;;;;24.50;99.90;;;;;;4994683;28;20314;-72
2022/02/28 04:23:44;;;;;;;;;;;24.60;99.90;;;;;;4994927;28;19910;-74
2022/02/28 04:26:11;;;;;;;;;;;24.50;99.90;;;;;;4994603;28;19954;-76
2022/02/28 04:28:37;;;;;;;;;;;24.50;99.90;;;;;;4994633;28;19920;-75
2022/02/28 04:31:04;;;;;;;;;;;24.50;99.90;;;;;;4994483;28;20368;-75
2022/02/28 04:33:31;;;;;;;;;;;24.30;99.90;;;;;;4994325;28;19917;-75
2022/02/28 04:35:57;;;;;;;;;;;24.30;99.90;;;;;;4994314;28;19921;-74
2022/02/28 04:38:24;;;;;;;;;;;24.10;99.90;;;;;;4994421;28;20380;-73
2022/02/28 04:40:50;;;;;;;;;;;23.90;99.90;;;;;;4993311;28;19909;-74
2022/02/28 04:43:17;;;;;;;;;;;23.70;99.90;;;;;;4994476;28;19949;-73
2022/02/28 04:45:44;;;;;;;;;;;23.50;99.90;;;;;;4994142;28;19960;-72
2022/02/28 04:48:10;;;;;;;;;;;23.30;99.90;;;;;;4994106;28;19980;-72
2022/02/28 04:50:37;;;;;;;;;;;23.20;99.90;;;;;;4994108;28;20376;-72
2022/02/28 04:53:04;;;;;;;;;;;22.90;99.90;;;;;;4994171;28;19910;-71
2022/02/28 04:55:31;;;;;;;;;;;22.60;99.90;;;;;;4993829;28;19914;-72
2022/02/28 04:57:57;;;;;;;;;;;22.50;99.90;;;;;;4994288;28;19920;-72
2022/02/28 05:00:24;;;;;;;;;;;22.30;99.90;;;;;;4994235;28;20395;-71
2022/02/28 05:03:01;;;;;;;;;;;22.20;99.90;;;;;;5110291;27;19916;-73
2022/02/28 05:05:27;;;;;;;;;;;22.10;99.90;;;;;;5110473;28;19919;-73
2022/02/28 05:07:54;;;;;;;;;;;22.10;99.90;;;;;;5110463;28;19908;-73
2022/02/28 05:10:21;;;;;;;;;;;22.00;99.90;;;;;;5110204;28;19908;-75
2022/02/28 05:12:48;;;;;;;;;;;22.00;99.90;;;;;;5109617;28;19916;-74
2022/02/28 05:15:14;;;;;;;;;;;21.80;99.90;;;;;;5110236;28;19915;-75
2022/02/28 05:17:41;;;;;;;;;;;21.80;99.90;;;;;;5110145;28;19909;-74
2022/02/28 05:20:08;;;;;;;;;;;21.60;99.90;;;;;;5109817;28;19915;-73
2022/02/28 05:22:34;;;;;;;;;;;21.60;99.90;;;;;;5110116;28;19916;-75
2022/02/28 05:25:01;;;;;;;;;;;21.50;99.90;;;;;;5109781;28;19908;-74
2022/02/28 05:27:34;;;;;;;;;;;21.40;99.90;;;;;;5110302;28;20282;-74
2022/02/28 05:30:01;;;;;;;;;;;21.40;99.90;;;;;;5108920;28;19915;-74
2022/02/28 05:32:28;;;;;;;;;;;21.40;99.90;;;;;;5109975;28;19908;-75
2022/02/28 05:34:54;;;;;;;;;;;21.30;99.90;;;;;;5109752;28;19908;-74
2022/02/28 05:37:21;;;;;;;;;;;21.40;99.90;;;;;;5109982;28;19908;-75
2022/02/28 05:39:48;;;;;;;;;;;21.50;99.90;;;;;;5109657;28;19954;-74
2022/02/28 05:42:14;;;;;;;;;;;21.50;99.90;;;;;;5109521;28;19916;-74
2022/02/28 05:44:41;;;;;;;;;;;21.40;99.90;;;;;;5109432;28;19908;-74
2022/02/28 05:47:07;;;;;;;;;;;21.50;99.90;;;;;;5109478;28;20259;-73
2022/02/28 05:49:34;;;;;;;;;;;21.50;99.90;;;;;;5109596;28;19951;-74
2022/02/28 05:52:01;;;;;;;;;;;21.50;99.90;;;;;;5107703;28;19908;-74
2022/02/28 05:54:27;;;;;;;;;;;21.50;99.90;;;;;;5107429;28;19908;-73
2022/02/28 05:56:54;;;;;;;;;;;21.40;99.90;;;;;;5107150;28;19980;-74
2022/02/28 05:59:21;;;;;;;;;;;21.50;99.90;;;;;;5107363;28;19919;-73
2022/02/28 06:01:47;;;;;;;;;;;21.50;99.90;;;;;;5106932;28;19931;-74
2022/02/28 06:04:14;;;;;;;;;;;21.60;99.90;;;;;;5106891;28;19943;-74
2022/02/28 06:06:41;;;;;;;;;;;21.50;99.90;;;;;;5106893;28;19908;-74
2022/02/28 06:09:07;;;;;;;;;;;21.60;99.90;;;;;;5106656;28;20041;-74
2022/02/28 06:11:34;;;;;;;;;;;21.60;99.90;;;;;;5106963;28;19930;-74
2022/02/28 06:14:01;;;;;;;;;;;21.60;99.90;;;;;;5094876;28;19908;-74
2022/02/28 06:16:27;;;;;;;;;;;21.60;99.90;;;;;;5093247;28;20420;-74
2022/02/28 06:18:54;;;;;;;;;;;21.70;99.90;;;;;;5092829;28;20002;-73
2022/02/28 06:21:21;;;;;;;;;;;21.50;99.90;;;;;;5125882;27;19985;-74
2022/02/28 06:23:47;;;;;;;;;;;21.50;99.90;;;;;;5093270;28;19915;-74
2022/02/28 06:26:14;;;;;;;;;;;21.60;99.90;;;;;;5093073;28;20366;-72
2022/02/28 06:28:41;;;;;;;;;;;21.60;99.90;;;;;;5092974;28;19908;-73
2022/02/28 06:31:07;;;;;;;;;;;21.60;99.90;;;;;;5092472;28;19961;-73
2022/02/28 06:33:34;;;;;;;;;;;21.70;99.90;;;;;;5092802;28;20301;-75
2022/02/28 06:36:01;;;;;;;;;;;21.60;99.90;;;;;;5092959;28;19912;-74
2022/02/28 06:38:27;;;;;;;;;;;21.70;99.90;;;;;;5092787;28;19912;-74
2022/02/28 06:40:54;;;;;;;;;;;21.70;99.90;;;;;;5092576;28;19965;-74
2022/02/28 06:43:21;;;;;;;;;;;21.70;99.90;;;;;;5092315;28;20262;-75
2022/02/28 06:45:49;;;;;;;;;;;21.70;99.90;;;;;;5092662;28;19944;-75
2022/02/28 06:48:15;;;;;;;;;;;21.70;99.90;;;;;;5092679;28;19951;-73
2022/02/28 06:50:42;;;;;;;;;;;21.70;99.90;;;;;;5092499;28;20610;-74
2022/02/28 06:53:09;;;;;;;;;;;21.70;99.90;;;;;;5092693;28;19915;-74
2022/02/28 06:55:40;;;;;;;;;;;21.70;99.90;;;;;;5092425;28;19915;-74
2022/02/28 06:58:07;;;;;;;;;;;21.70;99.90;;;;;;5092034;28;19998;-74
2022/02/28 07:00:34;;;;;;;;;;;21.70;99.90;;;;;;5092314;28;19965;-74
2022/02/28 07:03:00;;;;;;;;;;;21.80;99.90;;;;;;5092392;28;19989;-74
2022/02/28 07:05:27;;;;;;;;;;;21.70;99.90;;;;;;5092482;28;20350;-73
2022/02/28 07:07:54;;;;;;;;;;;21.80;99.90;;;;;;5092404;28;19976;-73
2022/02/28 07:10:22;;;;;;;;;;;21.80;99.90;;;;;;5091771;28;19908;-74
2022/02/28 07:12:49;;;;;;;;;;;21.70;99.90;;;;;;5091997;28;19916;-75
2022/02/28 07:15:16;;;;;;;;;;;21.60;99.90;;;;;;5092211;28;20661;-75
2022/02/28 07:17:42;;;;;;;;;;;21.70;99.90;;;;;;5092235;28;19931;-75
2022/02/28 07:20:10;;;;;;;;;;;21.70;99.90;;;;;;5091931;28;19916;-74
2022/02/28 07:22:36;;;;;;;;;;;21.70;99.90;;;;;;5091601;28;19916;-74
2022/02/28 07:25:03;;;;;;;;;;;21.70;99.90;;;;;;5090761;28;19909;-74
2022/02/28 07:27:30;;;;;;;;;;;21.80;99.90;;;;;;5091885;28;19915;-74
2022/02/28 07:29:56;;;;;;;;;;;21.70;99.90;;;;;;5091981;28;19908;-75
2022/02/28 07:32:23;;;;;;;;;;;21.70;99.90;;;;;;5091903;28;20385;-74
2022/02/28 07:34:50;;;;;;;;;;;21.60;99.90;;;;;;5091818;28;20003;-74
2022/02/28 07:37:16;;;;;;;;;;;21.50;99.90;;;;;;5091441;28;20050;-73
2022/02/28 07:39:43;;;;;;;;;;;21.50;99.90;;;;;;5091448;28;19912;-74
2022/02/28 07:42:09;;;;;;;;;;;21.50;99.90;;;;;;5091757;28;19941;-75
2022/02/28 07:44:36;;;;;;;;;;;21.60;99.90;;;;;;5091630;28;19915;-74
2022/02/28 07:47:03;;;;;;;;;;;21.60;99.90;;;;;;5091621;28;19943;-75
2022/02/28 07:49:35;;;;;;;;;;;21.70;99.90;;;;;;5091091;28;19912;-74
2022/02/28 07:52:03;;;;;;;;;;;21.80;99.90;;;;;;5091614;28;19955;-74
2022/02/28 07:54:29;;;;;;;;;;;21.80;99.90;;;;;;5091569;28;20370;-75
2022/02/28 07:56:56;;;;;;;;;;;21.80;99.90;;;;;;5091286;28;20313;-75
2022/02/28 07:59:23;;;;;;;;;;;21.80;99.90;;;;;;5091765;28;20344;-75
2022/02/28 08:01:49;;;;;;;;;;;21.70;99.90;;;;;;5090896;28;20038;-74
2022/02/28 08:04:16;;;;;;;;;;;21.70;99.90;;;;;;5091135;28;20011;-74
2022/02/28 08:06:43;;;;;;;;;;;21.80;99.90;;;;;;5093374;28;19916;-74
2022/02/28 08:09:09;;;;;;;;;;;21.70;99.90;;;;;;5088605;28;19930;-74
2022/02/28 08:11:36;;;;;;;;;;;21.70;99.90;;;;;;5072810;28;20006;-75
2022/02/28 08:14:03;;;;;;;;;;;21.50;99.90;;;;;;5073015;28;19908;-74
2022/02/28 08:16:30;;;;;;;;;;;21.50;99.90;;;;;;5073083;28;20389;-74
2022/02/28 08:18:57;;;;;;;;;;;21.40;99.90;;;;;;5073338;28;19978;-76
2022/02/28 08:21:23;;;;;;;;;;;21.40;99.90;;;;;;5072804;28;20266;-76
2022/02/28 08:23:50;;;;;;;;;;;21.50;99.90;;;;;;5072790;28;19919;-76
2022/02/28 08:26:16;;;;;;;;;;;21.50;99.90;;;;;;5072373;28;20287;-75
2022/02/28 08:28:43;;;;;;;;;;;21.50;99.90;;;;;;5072633;28;20386;-76
2022/02/28 08:31:10;;;;;;;;;;;21.50;99.90;;;;;;5072541;28;20374;-76
2022/02/28 08:33:36;;;;;;;;;;;21.60;99.90;;;;;;5072902;28;19915;-75
2022/02/28 08:36:03;;;;;;;;;;;21.60;99.90;;;;;;5072608;28;19916;-75
2022/02/28 08:38:30;;;;;;;;;;;21.70;99.90;;;;;;5072956;28;19916;-75
2022/02/28 08:40:56;;;;;;;;;;;21.60;99.90;;;;;;5072541;28;19916;-74
2022/02/28 08:43:23;;;;;;;;;;;21.70;99.90;;;;;;5072625;28;20355;-74
2022/02/28 08:45:50;;;;;;;;;;;21.60;99.90;;;;;;5072501;28;20345;-73
2022/02/28 08:48:16;;;;;;;;;;;21.50;99.90;;;;;;5072649;28;20278;-73
2022/02/28 08:50:43;;;;;;;;;;;21.40;99.90;;;;;;5072340;28;19912;-72
2022/02/28 08:53:10;;;;;;;;;;;21.30;99.90;;;;;;5072638;28;19912;-73
2022/02/28 08:55:36;;;;;;;;;;;21.20;99.90;;;;;;5072530;28;20277;-74
2022/02/28 08:58:03;;;;;;;;;;;21.20;99.90;;;;;;5072641;28;19993;-74
2022/02/28 09:00:30;;;;;;;;;;;21.20;99.90;;;;;;5072535;28;19912;-74
2022/02/28 09:02:56;;;;;;;;;;;21.20;99.90;;;;;;5072182;28;19943;-74
2022/02/28 09:05:23;;;;;;;;;;;21.10;99.90;;;;;;5072426;28;19919;-74
2022/02/28 09:07:50;;;;;;;;;;;21.10;99.90;;;;;;5072301;28;19912;-74
2022/02/28 09:10:18;;;;;;;;;;;21.10;99.90;;;;;;5072403;28;20004;-74
2022/02/28 09:12:45;;;;;;;;;;;21.10;99.90;;;;;;5072134;28;19932;-75
2022/02/28 09:15:11;;;;;;;;;;;21.10;99.90;;;;;;5072447;28;19915;-74
2022/02/28 09:17:38;;;;;;;;;;;21.10;99.90;;;;;;5072381;28;19909;-75
2022/02/28 09:20:05;;;;;;;;;;;21.10;99.90;;;;;;5072205;28;19909;-74
2022/02/28 09:22:32;;;;;;;;;;;21.10;99.90;;;;;;5071970;28;19959;-75
2022/02/28 09:24:59;;;;;;;;;;;21.10;99.90;;;;;;5071951;28;20351;-74
2022/02/28 09:27:26;;;;;;;;;;;21.10;99.90;;;;;;5072330;28;19909;-73
2022/02/28 09:29:52;;;;;;;;;;;21.10;99.90;;;;;;5072337;28;20366;-74
2022/02/28 09:32:19;;;;;;;;;;;21.10;99.90;;;;;;5072176;28;20023;-74
2022/02/28 09:34:46;;;;;;;;;;;21.10;99.90;;;;;;5071988;28;19916;-74
2022/02/28 09:37:12;;;;;;;;;;;21.10;99.90;;;;;;5072332;28;19908;-75
2022/02/28 09:39:39;;;;;;;;;;;21.00;99.90;;;;;;5072041;28;19908;-75
2022/02/28 09:42:06;;;;;;;;;;;21.00;99.90;;;;;;5072086;28;19923;-75
2022/02/28 09:44:34;;;;;;;;;;;21.10;99.90;;;;;;5071928;28;19951;-72
2022/02/28 09:47:01;;;;;;;;;;;21.10;99.90;;;;;;5071779;28;19908;-73
2022/02/28 09:49:27;;;;;;;;;;;21.10;99.90;;;;;;5074597;28;19912;-74
2022/02/28 09:51:54;;;;;;;;;;;21.10;99.90;;;;;;5075816;28;19914;-74
2022/02/28 09:54:21;;;;;;;;;;;21.10;99.90;;;;;;5075447;28;19915;-74
2022/02/28 09:56:47;;;;;;;;;;;21.10;99.90;;;;;;5075160;28;20366;-74
2022/02/28 09:59:14;;;;;;;;;;;21.10;99.90;;;;;;5075354;28;19909;-75
2022/02/28 10:01:44;;;;;;;;;;;21.10;99.90;;;;;;5075299;28;20288;-74
2022/02/28 10:04:13;;;;;;;;;;;21.10;99.90;;;;;;5076060;28;19985;-74
2022/02/28 10:06:40;;;;;;;;;;;21.10;99.90;;;;;;5075048;28;19913;-74
2022/02/28 10:09:08;;;;;;;;;;;21.00;99.90;;;;;;5075380;28;19908;-74
2022/02/28 10:11:39;;;;;;;;;;;20.90;99.90;;;;;;5075433;28;19916;-74
2022/02/28 10:14:07;;;;;;;;;;;20.90;99.90;;;;;;5074996;28;19912;-73
2022/02/28 10:16:35;;;;;;;;;;;20.80;99.90;;;;;;5075294;28;19916;-73
2022/02/28 10:19:04;;;;;;;;;;;20.80;99.90;;;;;;5075028;28;20271;-74
2022/02/28 10:21:36;;;;;;;;;;;20.80;99.90;;;;;;5075117;28;20015;-73
2022/02/28 10:24:03;;;;;;;;;;;20.80;99.90;;;;;;5075190;28;19908;-74
2022/02/28 10:26:37;;;;;;;;;;;20.80;99.90;;;;;;5074909;28;20363;-74
2022/02/28 10:29:05;;;;;;;;;;;20.80;99.90;;;;;;5075010;28;20023;-73
2022/02/28 10:31:37;;;;;;;;;;;20.80;99.90;;;;;;5074957;28;20009;-74
2022/02/28 10:34:21;;;;;;;;;;;20.70;99.90;;;;;;5075236;28;20351;-74
2022/02/28 10:36:49;;;;;;;;;;;20.70;99.90;;;;;;5074653;28;19908;-74
2022/02/28 10:39:22;;;;;;;;;;;20.70;99.90;;;;;;5074812;28;20274;-73
2022/02/28 10:41:48;;;;;;;;;;;20.80;99.90;;;;;;5074361;28;20436;-74
2022/02/28 10:44:15;;;;;;;;;;;20.80;99.90;;;;;;5074883;28;20275;-73
2022/02/28 10:46:43;;;;;;;;;;;20.80;99.90;;;;;;5074587;28;19915;-74
2022/02/28 10:49:15;;;;;;;;;;;20.80;99.90;;;;;;5074621;28;19913;-73
2022/02/28 10:51:52;;;;;;;;;;;20.80;99.90;;;;;;5074697;28;19916;-74
2022/02/28 10:54:57;;;;;;;;;;;20.80;99.90;;;;;;5074399;28;19935;-74
2022/02/28 10:57:23;;;;;;;;;;;20.80;99.90;;;;;;5051948;28;20471;-72
2022/02/28 10:59:56;;;;;;;;;;;20.70;99.90;;;;;;5052192;28;19956;-73
2022/02/28 11:02:24;;;;;;;;;;;20.70;99.90;;;;;;5063686;28;20020;-74
2022/02/28 11:05:12;;;;;;;;;;;20.70;99.90;;;;;;5074218;28;19916;-73
2022/02/28 11:07:43;;;;;;;;;;;20.70;99.90;;;;;;5074219;28;19909;-73
2022/02/28 11:10:11;;;;;;;;;;;20.70;99.90;;;;;;5073942;28;19912;-73
2022/02/28 11:12:38;;;;;;;;;;;20.70;99.90;;;;;;5073617;28;19931;-74
2022/02/28 11:15:06;;;;;;;;;;;20.70;99.90;;;;;;5074281;28;20343;-74
2022/02/28 11:17:33;;;;;;;;;;;20.80;99.90;;;;;;5074164;28;19909;-73
2022/02/28 11:20:06;;;;;;;;;;;20.80;99.90;;;;;;5074309;28;19912;-74
2022/02/28 11:22:32;;;;;;;;;;;20.80;99.90;;;;;;5073723;28;19916;-74
2022/02/28 11:24:59;;;;;;;;;;;20.70;99.90;;;;;;5073790;28;19912;-71
2022/02/28 11:27:27;;;;;;;;;;;20.70;99.90;;;;;;5073412;28;19908;-71
2022/02/28 11:29:58;;;;;;;;;;;20.80;99.90;;;;;;5073891;28;19909;-72
2022/02/28 11:32:26;;;;;;;;;;;20.80;99.90;;;;;;5073851;28;19908;-74
2022/02/28 11:35:12;;;;;;;;;;;20.80;99.90;;;;;;5074006;28;19908;-73
2022/02/28 11:37:39;;;;;;;;;;;20.80;99.90;;;;;;5073524;28;19944;-74
2022/02/28 11:40:06;;;;;;;;;;;20.90;99.90;;;;;;5073358;28;20325;-74
2022/02/28 11:42:50;;;;;;;;;;;20.80;99.90;;;;;;5073671;28;19927;-73
2022/02/28 11:45:22;;;;;;;;;;;20.80;99.90;;;;;;5073643;28;19909;-74
2022/02/28 11:48:07;;;;;;;;;;;20.80;99.90;;;;;;5073587;28;20256;-75
2022/02/28 11:50:53;;;;;;;;;;;20.80;99.90;;;;;;5073692;28;19908;-74
2022/02/28 11:53:38;;;;;;;;;;;20.90;99.90;;;;;;5073334;28;19912;-74
2022/02/28 11:56:17;;;;;;;;;;;20.90;99.90;;;;;;5073578;28;20518;-75
2022/02/28 11:58:49;;;;;;;;;;;20.80;99.90;;;;;;5073233;28;19908;-73
2022/02/28 12:01:17;;;;;;;;;;;20.80;99.90;;;;;;5073019;28;20294;-74
2022/02/28 12:03:50;;;;;;;;;;;20.70;99.90;;;;;;5073210;28;20358;-73
2022/02/28 12:06:37;;;;;;;;;;;20.80;99.90;;;;;;5073263;28;19995;-75
2022/02/28 12:09:03;;;;;;;;;;;20.80;99.90;;;;;;5069014;28;19909;-74
2022/02/28 12:11:31;;;;;;;;;;;20.90;99.90;;;;;;5072675;28;20703;-73
2022/02/28 12:14:02;;;;;;;;;;;21.00;99.90;;;;;;5073151;28;19908;-73
2022/02/28 12:19:27;;;;;;;;;;;21.10;99.90;;;;;;5073154;28;20522;-74
2022/02/28 12:22:00;;;;;;;;;;;20.90;99.90;;;;;;5072877;28;19960;-74
2022/02/28 12:24:44;;;;;;;;;;;20.90;99.90;;;;;;5073037;28;20295;-74
2022/02/28 12:27:12;;;;;;;;;;;20.80;99.90;;;;;;5073081;28;19908;-74
2022/02/28 12:29:39;;;;;;;;;;;20.90;99.90;;;;;;5105371;28;20347;-74
2022/02/28 12:32:05;;;;;;;;;;;20.80;99.90;;;;;;5072737;28;20374;-73
2022/02/28 12:34:35;;;;;;;;;;;20.80;99.90;;;;;;5072746;28;19909;-74
2022/02/28 12:37:03;;;;;;;;;;;20.80;99.90;;;;;;5072518;28;19915;-74
2022/02/28 12:39:29;;;;;;;;;;;20.80;99.90;;;;;;5072820;28;19963;-74
2022/02/28 12:41:56;;;;;;;;;;;20.70;99.90;;;;;;5072725;28;19923;-74
2022/02/28 12:44:23;;;;;;;;;;;20.70;99.90;;;;;;5072661;28;19915;-73
2022/02/28 12:46:53;;;;;;;;;;;20.70;99.90;;;;;;5072547;28;19912;-74
2022/02/28 12:49:21;;;;;;;;;;;20.80;99.90;;;;;;5072685;28;20093;-73
2022/02/28 12:51:48;;;;;;;;;;;20.80;99.90;;;;;;5072712;28;20267;-74
2022/02/28 12:54:17;;;;;;;;;;;20.80;99.90;;;;;;5072737;28;20373;-72
2022/02/28 12:56:50;;;;;;;;;;;20.80;99.90;;;;;;5072531;28;19908;-73
2022/02/28 12:59:18;;;;;;;;;;;20.70;99.90;;;;;;5072779;28;19916;-74
2022/02/28 13:01:45;;;;;;;;;;;20.80;99.90;;;;;;5072434;28;19920;-74
2022/02/28 13:04:12;;;;;;;;;;;20.70;99.90;;;;;;5072482;28;19999;-74
2022/02/28 13:06:42;;;;;;;;;;;20.70;99.90;;;;;;5072310;28;19995;-71
2022/02/28 13:09:16;;;;;;;;;;;20.80;99.90;;;;;;5072438;28;19913;-74
2022/02/28 13:11:44;;;;;;;;;;;20.60;99.90;;;;;;5072528;28;19970;-74
2022/02/28 13:14:11;;;;;;;;;;;20.60;99.90;;;;;;5072422;28;19920;-74
2022/02/28 13:16:40;;;;;;;;;;;20.70;99.90;;;;;;5072347;28;19908;-72
2022/02/28 13:19:07;;;;;;;;;;;20.80;99.90;;;;;;5072391;28;20256;-74
2022/02/28 13:21:35;;;;;;;;;;;20.80;99.90;;;;;;5072339;28;19969;-73
2022/02/28 13:24:04;;;;;;;;;;;20.80;99.90;;;;;;5074876;28;19916;-74
2022/02/28 13:26:31;;;;;;;;;;;20.80;99.90;;;;;;5076415;28;20003;-74
2022/02/28 13:28:58;;;;;;;;;;;20.90;99.90;;;;;;5076097;28;20357;-74
2022/02/28 13:31:25;;;;;;;;;;;20.90;99.90;;;;;;5076170;28;20007;-73
2022/02/28 13:33:52;;;;;;;;;;;20.90;99.90;;;;;;5076239;28;19908;-73
2022/02/28 13:36:19;;;;;;;;;;;20.90;99.90;;;;;;5076199;28;19909;-73
2022/02/28 13:38:45;;;;;;;;;;;20.90;99.90;;;;;;5075654;28;19920;-74
2022/02/28 13:41:12;;;;;;;;;;;20.90;99.90;;;;;;5075955;28;19913;-73
2022/02/28 13:43:42;;;;;;;;;;;20.90;99.90;;;;;;5076125;28;19954;-73
2022/02/28 13:46:11;;;;;;;;;;;20.90;99.90;;;;;;5075965;28;19908;-73
2022/02/28 13:48:38;;;;;;;;;;;20.90;99.90;;;;;;5075958;28;20433;-73
2022/02/28 13:51:08;;;;;;;;;;;20.90;99.90;;;;;;5076054;28;19909;-74
2022/02/28 13:53:42;;;;;;;;;;;20.90;99.90;;;;;;5075862;28;20014;-74
2022/02/28 13:56:22;;;;;;;;;;;20.80;99.90;;;;;;5075833;28;19909;-73
2022/02/28 13:58:49;;;;;;;;;;;20.60;99.90;;;;;;5075617;28;19908;-72
2022/02/28 14:01:16;;;;;;;;;;;20.50;99.90;;;;;;5075463;28;20366;-73
2022/02/28 14:03:58;;;;;;;;;;;20.50;99.90;;;;;;5075735;28;19916;-74
2022/02/28 14:06:25;;;;;;;;;;;20.50;99.90;;;;;;5075702;28;19912;-74
2022/02/28 14:08:51;;;;;;;;;;;20.60;99.90;;;;;;5075173;28;19957;-74
2022/02/28 14:11:26;;;;;;;;;;;20.60;99.90;;;;;;5075544;28;20011;-73
2022/02/28 14:13:54;;;;;;;;;;;20.60;99.90;;;;;;5075576;28;19951;-73
2022/02/28 14:16:21;;;;;;;;;;;20.60;99.90;;;;;;5075429;28;19946;-73
2022/02/28 14:19:03;;;;;;;;;;;20.60;99.90;;;;;;5075249;28;19921;-74
2022/02/28 14:21:30;;;;;;;;;;;20.60;99.90;;;;;;5075284;28;19927;-74
2022/02/28 14:23:57;;;;;;;;;;;20.60;99.90;;;;;;5075114;28;20294;-73